sensor_id;sensor_type;location;lat;lon;timestamp;pressure;altitude;pressure_sealevel;temperature;humidity
34081;BME280;20358;50.272;19.026;2023-04-29T00:01:43;98029.88;;;9.70;37.55
34081;BME280;20358;50.272;19.026;2023-04-29T00:04:50;98023.19;;;9.66;38.19
34081;BME280;20358;50.272;19.026;2023-04-29T00:07:56;98018.25;;;9.62;38.54
34081;BME280;20358;50.272;19.026;2023-04-29T00:11:02;98021.00;;;9.60;38.32
34081;BME280;20358;50.272;19.026;2023-04-29T00:14:11;98011.66;;;9.56;38.81
34081;BME280;20358;50.272;19.026;2023-04-29T00:17:18;98014.88;;;9.49;39.65
34081;BME280;20358;50.272;19.026;2023-04-29T00:20:23;98015.72;;;9.49;38.70
34081;BME280;20358;50.272;19.026;2023-04-29T00:23:30;98013.19;;;9.48;38.63
34081;BME280;20358;50.272;19.026;2023-04-29T00:26:36;98009.34;;;9.41;39.05
34081;BME280;20358;50.272;19.026;2023-04-29T00:29:46;98010.53;;;9.37;39.98
34081;BME280;20358;50.272;19.026;2023-04-29T00:32:51;98007.91;;;9.37;40.41
34081;BME280;20358;50.272;19.026;2023-04-29T00:35:58;98003.56;;;9.36;39.54
34081;BME280;20358;50.272;19.026;2023-04-29T00:39:03;98002.72;;;9.35;39.87
34081;BME280;20358;50.272;19.026;2023-04-29T00:42:10;97995.16;;;9.31;40.45
34081;BME280;20358;50.272;19.026;2023-04-29T00:45:18;97997.09;;;9.29;40.44
34081;BME280;20358;50.272;19.026;2023-04-29T00:48:25;97996.34;;;9.27;40.72
34081;BME280;20358;50.272;19.026;2023-04-29T00:51:31;97995.38;;;9.28;41.09
34081;BME280;20358;50.272;19.026;2023-04-29T00:54:39;97989.69;;;9.34;40.77
34081;BME280;20358;50.272;19.026;2023-04-29T00:57:45;97994.47;;;9.40;40.73
34081;BME280;20358;50.272;19.026;2023-04-29T01:00:57;97992.31;;;9.45;40.09
34081;BME280;20358;50.272;19.026;2023-04-29T01:04:04;97992.81;;;9.50;40.20
34081;BME280;20358;50.272;19.026;2023-04-29T01:07:15;97992.25;;;9.57;40.40
34081;BME280;20358;50.272;19.026;2023-04-29T01:10:27;97996.19;;;9.63;39.90
34081;BME280;20358;50.272;19.026;2023-04-29T01:13:42;98001.47;;;9.63;39.55
34081;BME280;20358;50.272;19.026;2023-04-29T01:16:59;98006.03;;;9.61;40.05
34081;BME280;20358;50.272;19.026;2023-04-29T01:20:11;98005.06;;;9.62;40.17
34081;BME280;20358;50.272;19.026;2023-04-29T01:23:18;98002.44;;;9.62;39.97
34081;BME280;20358;50.272;19.026;2023-04-29T01:26:31;98008.66;;;9.61;40.41
34081;BME280;20358;50.272;19.026;2023-04-29T01:30:27;98007.00;;;9.60;40.62
34081;BME280;20358;50.272;19.026;2023-04-29T01:33:43;98001.81;;;9.58;40.19
34081;BME280;20358;50.272;19.026;2023-04-29T01:37:06;97998.34;;;9.58;40.63
34081;BME280;20358;50.272;19.026;2023-04-29T01:40:32;97995.44;;;9.50;41.47
34081;BME280;20358;50.272;19.026;2023-04-29T01:43:55;97981.88;;;9.32;40.99
34081;BME280;20358;50.272;19.026;2023-04-29T01:47:04;97995.66;;;9.36;41.16
34081;BME280;20358;50.272;19.026;2023-04-29T01:50:17;97996.84;;;9.32;40.90
34081;BME280;20358;50.272;19.026;2023-04-29T01:53:23;97989.63;;;9.22;41.54
34081;BME280;20358;50.272;19.026;2023-04-29T01:56:29;97982.16;;;9.16;41.74
34081;BME280;20358;50.272;19.026;2023-04-29T01:59:43;97985.25;;;9.10;41.53
34081;BME280;20358;50.272;19.026;2023-04-29T02:03:32;97981.59;;;9.00;42.05
34081;BME280;20358;50.272;19.026;2023-04-29T02:06:41;97971.97;;;8.88;42.17
34081;BME280;20358;50.272;19.026;2023-04-29T02:09:47;97975.94;;;8.94;42.61
34081;BME280;20358;50.272;19.026;2023-04-29T02:12:53;97978.47;;;8.95;41.85
34081;BME280;20358;50.272;19.026;2023-04-29T02:16:09;97971.31;;;8.97;42.61
34081;BME280;20358;50.272;19.026;2023-04-29T02:19:21;97974.16;;;8.94;42.71
34081;BME280;20358;50.272;19.026;2023-04-29T02:22:30;97976.31;;;9.00;42.86
34081;BME280;20358;50.272;19.026;2023-04-29T02:25:36;97972.97;;;8.98;42.53
34081;BME280;20358;50.272;19.026;2023-04-29T02:28:42;97970.03;;;9.03;42.92
34081;BME280;20358;50.272;19.026;2023-04-29T02:31:51;97968.19;;;9.03;43.03
34081;BME280;20358;50.272;19.026;2023-04-29T02:34:57;97965.56;;;9.03;43.07
34081;BME280;20358;50.272;19.026;2023-04-29T02:38:03;97966.41;;;9.04;42.36
34081;BME280;20358;50.272;19.026;2023-04-29T02:41:15;97965.34;;;9.06;42.28
34081;BME280;20358;50.272;19.026;2023-04-29T02:44:22;97962.84;;;9.05;42.39
34081;BME280;20358;50.272;19.026;2023-04-29T02:47:32;97961.00;;;8.94;43.07
34081;BME280;20358;50.272;19.026;2023-04-29T02:50:38;97962.66;;;8.95;43.00
34081;BME280;20358;50.272;19.026;2023-04-29T02:53:44;97963.06;;;9.02;43.78
34081;BME280;20358;50.272;19.026;2023-04-29T02:56:50;97960.91;;;9.07;43.12
34081;BME280;20358;50.272;19.026;2023-04-29T02:59:56;97963.44;;;9.08;43.81
34081;BME280;20358;50.272;19.026;2023-04-29T03:03:06;97965.84;;;9.11;43.76
34081;BME280;20358;50.272;19.026;2023-04-29T03:06:13;97956.03;;;9.13;43.88
34081;BME280;20358;50.272;19.026;2023-04-29T03:09:18;97951.00;;;9.10;43.31
34081;BME280;20358;50.272;19.026;2023-04-29T03:12:25;97949.53;;;9.06;43.98
34081;BME280;20358;50.272;19.026;2023-04-29T03:15:31;97936.59;;;9.03;44.07
34081;BME280;20358;50.272;19.026;2023-04-29T03:18:40;97939.72;;;8.97;44.46
34081;BME280;20358;50.272;19.026;2023-04-29T03:21:46;97933.81;;;8.94;44.04
34081;BME280;20358;50.272;19.026;2023-04-29T03:24:56;97936.81;;;8.89;44.54
34081;BME280;20358;50.272;19.026;2023-04-29T03:28:01;97940.38;;;8.88;44.53
34081;BME280;20358;50.272;19.026;2023-04-29T03:31:09;97939.44;;;8.89;45.54
34081;BME280;20358;50.272;19.026;2023-04-29T03:34:20;97940.16;;;8.91;44.96
34081;BME280;20358;50.272;19.026;2023-04-29T03:37:42;97945.28;;;8.93;44.96
34081;BME280;20358;50.272;19.026;2023-04-29T03:40:56;97946.75;;;8.97;44.96
34081;BME280;20358;50.272;19.026;2023-04-29T03:44:03;97945.56;;;9.01;45.81
34081;BME280;20358;50.272;19.026;2023-04-29T03:47:09;97939.44;;;9.00;46.04
34081;BME280;20358;50.272;19.026;2023-04-29T03:50:18;97932.88;;;8.95;45.41
34081;BME280;20358;50.272;19.026;2023-04-29T03:53:24;97933.69;;;8.95;46.85
34081;BME280;20358;50.272;19.026;2023-04-29T03:56:31;97945.41;;;8.91;45.91
34081;BME280;20358;50.272;19.026;2023-04-29T03:59:37;97941.22;;;8.89;46.41
34081;BME280;20358;50.272;19.026;2023-04-29T04:02:43;97945.63;;;8.88;47.42
34081;BME280;20358;50.272;19.026;2023-04-29T04:05:52;97946.50;;;8.89;47.34
34081;BME280;20358;50.272;19.026;2023-04-29T04:08:58;97934.25;;;8.88;47.75
34081;BME280;20358;50.272;19.026;2023-04-29T04:12:07;97941.34;;;8.87;46.99
34081;BME280;20358;50.272;19.026;2023-04-29T04:15:13;97939.53;;;8.88;48.08
34081;BME280;20358;50.272;19.026;2023-04-29T04:18:19;97939.09;;;8.94;48.12
34081;BME280;20358;50.272;19.026;2023-04-29T04:21:28;97944.97;;;8.97;48.24
34081;BME280;20358;50.272;19.026;2023-04-29T04:24:39;97935.88;;;9.01;46.96
34081;BME280;20358;50.272;19.026;2023-04-29T04:27:46;97943.56;;;9.04;47.87
34081;BME280;20358;50.272;19.026;2023-04-29T04:31:38;97946.06;;;9.06;47.26
34081;BME280;20358;50.272;19.026;2023-04-29T04:34:49;97947.13;;;9.03;47.28
34081;BME280;20358;50.272;19.026;2023-04-29T04:37:57;97940.69;;;9.07;47.95
34081;BME280;20358;50.272;19.026;2023-04-29T04:41:05;97946.81;;;9.08;47.63
34081;BME280;20358;50.272;19.026;2023-04-29T04:44:13;97931.81;;;9.08;47.40
34081;BME280;20358;50.272;19.026;2023-04-29T04:47:41;97937.34;;;9.05;47.78
34081;BME280;20358;50.272;19.026;2023-04-29T04:51:06;97911.91;;;8.93;48.85
34081;BME280;20358;50.272;19.026;2023-04-29T04:54:16;97929.69;;;9.13;48.38
34081;BME280;20358;50.272;19.026;2023-04-29T04:57:26;97939.19;;;9.16;47.61
34081;BME280;20358;50.272;19.026;2023-04-29T05:00:35;97938.72;;;9.22;48.60
34081;BME280;20358;50.272;19.026;2023-04-29T05:03:41;97936.81;;;9.24;47.59
34081;BME280;20358;50.272;19.026;2023-04-29T05:06:48;97936.34;;;9.30;47.95
34081;BME280;20358;50.272;19.026;2023-04-29T05:09:59;97939.59;;;9.34;47.91
34081;BME280;20358;50.272;19.026;2023-04-29T05:13:07;97936.75;;;9.37;47.93
34081;BME280;20358;50.272;19.026;2023-04-29T05:16:13;97933.13;;;9.38;48.07
34081;BME280;20358;50.272;19.026;2023-04-29T05:19:22;97939.88;;;9.42;47.91
34081;BME280;20358;50.272;19.026;2023-04-29T05:22:27;97943.94;;;9.46;48.11
34081;BME280;20358;50.272;19.026;2023-04-29T05:25:37;97933.88;;;9.51;47.83
34081;BME280;20358;50.272;19.026;2023-04-29T05:28:43;97937.84;;;9.56;48.79
34081;BME280;20358;50.272;19.026;2023-04-29T05:31:53;97936.75;;;9.59;48.59
34081;BME280;20358;50.272;19.026;2023-04-29T05:34:58;97937.47;;;9.61;49.56
34081;BME280;20358;50.272;19.026;2023-04-29T05:38:09;97931.25;;;9.62;49.58
34081;BME280;20358;50.272;19.026;2023-04-29T05:41:23;97940.81;;;9.63;49.49
34081;BME280;20358;50.272;19.026;2023-04-29T05:44:32;97938.47;;;9.60;49.91
34081;BME280;20358;50.272;19.026;2023-04-29T05:47:40;97943.72;;;9.60;50.28
34081;BME280;20358;50.272;19.026;2023-04-29T05:50:46;97939.63;;;9.56;50.22
34081;BME280;20358;50.272;19.026;2023-04-29T05:53:52;97946.81;;;9.54;50.35
34081;BME280;20358;50.272;19.026;2023-04-29T05:57:02;97940.22;;;9.48;50.50
34081;BME280;20358;50.272;19.026;2023-04-29T06:00:08;97942.63;;;9.51;50.93
34081;BME280;20358;50.272;19.026;2023-04-29T06:03:16;97947.53;;;9.56;50.38
34081;BME280;20358;50.272;19.026;2023-04-29T06:06:27;97943.97;;;9.57;50.88
34081;BME280;20358;50.272;19.026;2023-04-29T06:09:38;97938.69;;;9.57;51.17
34081;BME280;20358;50.272;19.026;2023-04-29T06:12:47;97948.50;;;9.66;50.74
34081;BME280;20358;50.272;19.026;2023-04-29T06:15:54;97945.78;;;9.67;51.32
34081;BME280;20358;50.272;19.026;2023-04-29T06:19:01;97947.19;;;9.71;51.01
34081;BME280;20358;50.272;19.026;2023-04-29T06:22:08;97940.63;;;9.77;51.53
34081;BME280;20358;50.272;19.026;2023-04-29T06:25:18;97947.81;;;9.75;52.02
34081;BME280;20358;50.272;19.026;2023-04-29T06:28:29;97943.97;;;9.79;51.55
34081;BME280;20358;50.272;19.026;2023-04-29T06:31:35;97943.88;;;9.80;51.76
34081;BME280;20358;50.272;19.026;2023-04-29T06:34:43;97940.16;;;9.83;51.72
34081;BME280;20358;50.272;19.026;2023-04-29T06:38:01;97935.69;;;9.83;52.31
34081;BME280;20358;50.272;19.026;2023-04-29T06:41:21;97939.88;;;9.86;52.63
34081;BME280;20358;50.272;19.026;2023-04-29T06:44:32;97942.28;;;9.89;53.30
34081;BME280;20358;50.272;19.026;2023-04-29T06:48:11;97938.94;;;9.98;53.26
34081;BME280;20358;50.272;19.026;2023-04-29T06:51:21;97946.25;;;10.06;53.03
34081;BME280;20358;50.272;19.026;2023-04-29T06:54:30;97950.44;;;10.08;53.48
34081;BME280;20358;50.272;19.026;2023-04-29T06:57:35;97950.22;;;10.11;53.33
34081;BME280;20358;50.272;19.026;2023-04-29T07:00:47;97956.66;;;10.18;53.37
34081;BME280;20358;50.272;19.026;2023-04-29T07:03:56;97944.94;;;10.22;54.17
34081;BME280;20358;50.272;19.026;2023-04-29T07:07:02;97942.28;;;10.22;53.84
34081;BME280;20358;50.272;19.026;2023-04-29T07:10:09;97941.78;;;10.17;53.77
34081;BME280;20358;50.272;19.026;2023-04-29T07:13:41;97936.41;;;10.19;54.08
34081;BME280;20358;50.272;19.026;2023-04-29T07:16:52;97937.25;;;10.19;54.23
34081;BME280;20358;50.272;19.026;2023-04-29T07:19:59;97932.69;;;10.21;54.75
34081;BME280;20358;50.272;19.026;2023-04-29T07:23:05;97935.31;;;10.21;54.38
34081;BME280;20358;50.272;19.026;2023-04-29T07:26:13;97935.31;;;10.21;54.94
34081;BME280;20358;50.272;19.026;2023-04-29T07:29:20;97933.44;;;10.23;55.44
34081;BME280;20358;50.272;19.026;2023-04-29T07:32:29;97935.13;;;10.24;55.09
34081;BME280;20358;50.272;19.026;2023-04-29T07:35:38;97937.50;;;10.27;54.62
34081;BME280;20358;50.272;19.026;2023-04-29T07:38:47;97934.88;;;10.27;55.26
34081;BME280;20358;50.272;19.026;2023-04-29T07:41:54;97943.59;;;10.39;55.04
34081;BME280;20358;50.272;19.026;2023-04-29T07:45:02;97940.22;;;10.48;54.74
34081;BME280;20358;50.272;19.026;2023-04-29T07:48:11;97944.91;;;10.56;55.12
34081;BME280;20358;50.272;19.026;2023-04-29T07:51:17;97945.22;;;10.62;54.54
34081;BME280;20358;50.272;19.026;2023-04-29T07:54:23;97950.84;;;10.69;54.89
34081;BME280;20358;50.272;19.026;2023-04-29T07:57:31;97942.66;;;10.72;54.86
34081;BME280;20358;50.272;19.026;2023-04-29T08:00:36;97948.94;;;10.71;54.94
34081;BME280;20358;50.272;19.026;2023-04-29T08:03:46;97937.66;;;10.69;55.35
34081;BME280;20358;50.272;19.026;2023-04-29T08:06:53;97944.22;;;10.74;55.05
34081;BME280;20358;50.272;19.026;2023-04-29T08:10:00;97946.75;;;10.76;54.93
34081;BME280;20358;50.272;19.026;2023-04-29T08:13:06;97940.13;;;10.81;54.80
34081;BME280;20358;50.272;19.026;2023-04-29T08:16:14;97939.94;;;10.94;54.77
34081;BME280;20358;50.272;19.026;2023-04-29T08:19:23;97941.78;;;11.14;54.94
34081;BME280;20358;50.272;19.026;2023-04-29T08:22:29;97938.31;;;11.34;54.66
34081;BME280;20358;50.272;19.026;2023-04-29T08:25:34;97933.91;;;11.65;53.52
34081;BME280;20358;50.272;19.026;2023-04-29T08:28:41;97932.47;;;11.82;53.20
34081;BME280;20358;50.272;19.026;2023-04-29T08:31:46;97929.94;;;12.01;53.10
34081;BME280;20358;50.272;19.026;2023-04-29T08:34:57;97937.94;;;12.20;52.45
34081;BME280;20358;50.272;19.026;2023-04-29T08:38:03;97931.03;;;12.38;51.69
34081;BME280;20358;50.272;19.026;2023-04-29T08:41:11;97930.50;;;12.44;50.67
34081;BME280;20358;50.272;19.026;2023-04-29T08:44:17;97936.66;;;12.54;50.99
34081;BME280;20358;50.272;19.026;2023-04-29T08:47:25;97944.22;;;12.78;50.57
34081;BME280;20358;50.272;19.026;2023-04-29T08:50:37;97931.13;;;12.96;49.96
34081;BME280;20358;50.272;19.026;2023-04-29T08:53:45;97937.84;;;13.09;49.33
34081;BME280;20358;50.272;19.026;2023-04-29T08:56:52;97930.00;;;13.27;48.90
34081;BME280;20358;50.272;19.026;2023-04-29T09:00:01;97929.44;;;13.42;48.25
34081;BME280;20358;50.272;19.026;2023-04-29T09:03:14;97926.88;;;13.60;47.54
34081;BME280;20358;50.272;19.026;2023-04-29T09:06:29;97925.44;;;13.75;47.32
34081;BME280;20358;50.272;19.026;2023-04-29T09:09:35;97925.41;;;13.94;46.30
34081;BME280;20358;50.272;19.026;2023-04-29T09:12:44;97922.28;;;14.08;46.17
34081;BME280;20358;50.272;19.026;2023-04-29T09:15:50;97921.78;;;14.23;45.60
34081;BME280;20358;50.272;19.026;2023-04-29T09:18:56;97925.22;;;14.33;44.52
34081;BME280;20358;50.272;19.026;2023-04-29T09:22:05;97926.31;;;14.40;43.80
34081;BME280;20358;50.272;19.026;2023-04-29T09:25:14;97927.78;;;14.52;43.94
34081;BME280;20358;50.272;19.026;2023-04-29T09:28:20;97925.06;;;14.61;44.04
34081;BME280;20358;50.272;19.026;2023-04-29T09:31:27;97924.41;;;14.77;44.01
34081;BME280;20358;50.272;19.026;2023-04-29T09:34:34;97920.94;;;14.94;43.81
34081;BME280;20358;50.272;19.026;2023-04-29T09:37:45;97921.41;;;15.07;43.88
34081;BME280;20358;50.272;19.026;2023-04-29T09:40:51;97923.28;;;15.15;43.90
34081;BME280;20358;50.272;19.026;2023-04-29T09:44:05;97927.31;;;15.19;44.00
34081;BME280;20358;50.272;19.026;2023-04-29T09:47:12;97929.97;;;15.19;44.07
34081;BME280;20358;50.272;19.026;2023-04-29T09:50:19;97921.88;;;15.28;44.27
34081;BME280;20358;50.272;19.026;2023-04-29T09:53:29;97921.94;;;15.37;43.50
34081;BME280;20358;50.272;19.026;2023-04-29T09:56:48;97917.78;;;15.34;43.73
34081;BME280;20358;50.272;19.026;2023-04-29T09:59:54;97925.94;;;15.32;43.31
34081;BME280;20358;50.272;19.026;2023-04-29T10:03:02;97925.47;;;15.19;43.80
34081;BME280;20358;50.272;19.026;2023-04-29T10:06:11;97920.69;;;15.05;43.62
34081;BME280;20358;50.272;19.026;2023-04-29T10:09:23;97886.41;;;14.67;44.01
34081;BME280;20358;50.272;19.026;2023-04-29T10:12:33;97924.69;;;14.74;44.66
34081;BME280;20358;50.272;19.026;2023-04-29T10:15:51;97926.88;;;14.61;44.21
34081;BME280;20358;50.272;19.026;2023-04-29T10:19:11;97758.56;;;13.45;44.08
34081;BME280;20358;50.272;19.026;2023-04-29T10:22:31;97925.22;;;14.33;44.74
34081;BME280;20358;50.272;19.026;2023-04-29T10:25:43;97925.50;;;14.30;45.27
34081;BME280;20358;50.272;19.026;2023-04-29T10:28:54;97929.47;;;14.26;44.81
34081;BME280;20358;50.272;19.026;2023-04-29T10:32:02;97933.69;;;14.19;44.61
34081;BME280;20358;50.272;19.026;2023-04-29T10:35:10;97913.88;;;14.13;44.70
34081;BME280;20358;50.272;19.026;2023-04-29T10:38:25;97919.47;;;14.10;45.68
34081;BME280;20358;50.272;19.026;2023-04-29T10:41:43;97919.25;;;14.03;45.25
34081;BME280;20358;50.272;19.026;2023-04-29T10:45:20;97911.13;;;14.05;45.38
34081;BME280;20358;50.272;19.026;2023-04-29T10:48:29;97918.13;;;13.96;45.93
34081;BME280;20358;50.272;19.026;2023-04-29T10:51:39;97915.75;;;13.93;45.65
34081;BME280;20358;50.272;19.026;2023-04-29T10:55:00;97914.13;;;13.83;46.16
34081;BME280;20358;50.272;19.026;2023-04-29T10:58:33;97921.44;;;13.62;46.32
34081;BME280;20358;50.272;19.026;2023-04-29T11:01:47;97892.91;;;13.27;46.30
34081;BME280;20358;50.272;19.026;2023-04-29T11:05:08;97916.19;;;13.33;46.63
34081;BME280;20358;50.272;19.026;2023-04-29T11:08:19;97922.34;;;13.24;47.28
34081;BME280;20358;50.272;19.026;2023-04-29T11:11:55;97924.72;;;13.08;47.28
34081;BME280;20358;50.272;19.026;2023-04-29T11:15:09;97922.19;;;13.16;47.84
34081;BME280;20358;50.272;19.026;2023-04-29T11:18:14;97918.03;;;13.23;47.72
34081;BME280;20358;50.272;19.026;2023-04-29T11:21:21;97910.78;;;13.25;47.27
34081;BME280;20358;50.272;19.026;2023-04-29T11:24:28;97915.78;;;13.28;48.01
34081;BME280;20358;50.272;19.026;2023-04-29T11:27:37;97912.41;;;13.26;47.58
34081;BME280;20358;50.272;19.026;2023-04-29T11:30:48;97913.56;;;13.14;47.54
34081;BME280;20358;50.272;19.026;2023-04-29T11:33:56;97924.16;;;13.14;47.94
34081;BME280;20358;50.272;19.026;2023-04-29T11:37:03;97919.03;;;13.12;47.67
34081;BME280;20358;50.272;19.026;2023-04-29T11:40:11;97918.56;;;12.98;48.34
34081;BME280;20358;50.272;19.026;2023-04-29T11:43:19;97917.72;;;12.87;48.49
34081;BME280;20358;50.272;19.026;2023-04-29T11:46:33;97917.59;;;12.99;49.16
34081;BME280;20358;50.272;19.026;2023-04-29T11:49:38;97912.88;;;13.12;49.07
34081;BME280;20358;50.272;19.026;2023-04-29T11:52:46;97919.69;;;13.24;49.05
34081;BME280;20358;50.272;19.026;2023-04-29T11:55:53;97922.34;;;13.14;49.31
34081;BME280;20358;50.272;19.026;2023-04-29T11:59:02;97934.50;;;13.17;49.79
34081;BME280;20358;50.272;19.026;2023-04-29T12:02:13;97923.88;;;13.26;50.03
34081;BME280;20358;50.272;19.026;2023-04-29T12:05:20;97928.19;;;13.37;50.47
34081;BME280;20358;50.272;19.026;2023-04-29T12:08:29;97910.91;;;13.33;50.19
34081;BME280;20358;50.272;19.026;2023-04-29T12:11:37;97929.44;;;13.42;50.15
34081;BME280;20358;50.272;19.026;2023-04-29T12:14:44;97927.91;;;13.40;49.70
34081;BME280;20358;50.272;19.026;2023-04-29T12:17:54;97928.63;;;13.32;50.63
34081;BME280;20358;50.272;19.026;2023-04-29T12:21:00;97934.75;;;13.33;50.66
34081;BME280;20358;50.272;19.026;2023-04-29T12:24:08;97933.34;;;13.48;50.19
34081;BME280;20358;50.272;19.026;2023-04-29T12:27:14;97924.06;;;13.71;50.31
34081;BME280;20358;50.272;19.026;2023-04-29T12:30:21;97914.63;;;14.05;49.68
34081;BME280;20358;50.272;19.026;2023-04-29T12:33:30;97908.69;;;14.39;49.02
34081;BME280;20358;50.272;19.026;2023-04-29T12:36:36;97909.88;;;14.71;48.16
34081;BME280;20358;50.272;19.026;2023-04-29T12:39:42;97910.31;;;14.94;47.59
34081;BME280;20358;50.272;19.026;2023-04-29T12:42:49;97892.19;;;15.15;47.38
34081;BME280;20358;50.272;19.026;2023-04-29T12:45:59;97891.69;;;15.38;46.31
34081;BME280;20358;50.272;19.026;2023-04-29T12:49:10;97889.72;;;15.40;45.79
34081;BME280;20358;50.272;19.026;2023-04-29T12:52:15;97888.84;;;15.13;45.83
34081;BME280;20358;50.272;19.026;2023-04-29T12:55:22;97886.34;;;15.12;46.69
34081;BME280;20358;50.272;19.026;2023-04-29T12:58:28;97883.00;;;15.27;46.51
34081;BME280;20358;50.272;19.026;2023-04-29T13:01:36;97885.66;;;15.27;45.40
34081;BME280;20358;50.272;19.026;2023-04-29T13:04:44;97890.28;;;15.25;45.79
34081;BME280;20358;50.272;19.026;2023-04-29T13:07:51;97885.50;;;15.11;45.45
34081;BME280;20358;50.272;19.026;2023-04-29T13:10:57;97883.72;;;14.94;45.67
34081;BME280;20358;50.272;19.026;2023-04-29T13:14:04;97877.31;;;14.87;45.91
34081;BME280;20358;50.272;19.026;2023-04-29T13:17:10;97869.28;;;14.79;45.70
34081;BME280;20358;50.272;19.026;2023-04-29T13:20:20;97870.06;;;14.89;45.10
34081;BME280;20358;50.272;19.026;2023-04-29T13:23:26;97865.25;;;14.93;45.85
34081;BME280;20358;50.272;19.026;2023-04-29T13:26:33;97876.13;;;14.99;45.92
34081;BME280;20358;50.272;19.026;2023-04-29T13:29:39;97870.34;;;14.86;45.70
34081;BME280;20358;50.272;19.026;2023-04-29T13:32:46;97861.38;;;14.87;46.08
34081;BME280;20358;50.272;19.026;2023-04-29T13:36:02;97868.38;;;14.88;46.26
34081;BME280;20358;50.272;19.026;2023-04-29T13:39:09;97860.22;;;14.90;46.87
34081;BME280;20358;50.272;19.026;2023-04-29T13:42:15;97867.13;;;15.00;46.76
34081;BME280;20358;50.272;19.026;2023-04-29T13:45:28;97868.22;;;15.07;46.57
34081;BME280;20358;50.272;19.026;2023-04-29T13:48:34;97866.13;;;15.19;46.24
34081;BME280;20358;50.272;19.026;2023-04-29T13:52:03;97863.22;;;15.30;46.48
34081;BME280;20358;50.272;19.026;2023-04-29T13:55:28;97865.09;;;15.38;46.48
34081;BME280;20358;50.272;19.026;2023-04-29T13:58:39;97858.75;;;15.30;46.69
34081;BME280;20358;50.272;19.026;2023-04-29T14:01:48;97861.06;;;15.33;46.51
34081;BME280;20358;50.272;19.026;2023-04-29T14:05:15;97865.72;;;15.31;46.76
34081;BME280;20358;50.272;19.026;2023-04-29T14:08:24;97860.25;;;15.33;46.30
34081;BME280;20358;50.272;19.026;2023-04-29T14:11:30;97865.22;;;15.28;46.64
34081;BME280;20358;50.272;19.026;2023-04-29T14:14:38;97864.66;;;15.24;45.75
34081;BME280;20358;50.272;19.026;2023-04-29T14:17:44;97862.78;;;15.17;45.74
34081;BME280;20358;50.272;19.026;2023-04-29T14:20:51;97863.03;;;15.06;45.57
34081;BME280;20358;50.272;19.026;2023-04-29T14:24:02;97870.44;;;14.94;46.04
34081;BME280;20358;50.272;19.026;2023-04-29T14:27:07;97860.88;;;14.84;46.19
34081;BME280;20358;50.272;19.026;2023-04-29T14:30:14;97857.97;;;14.77;46.07
34081;BME280;20358;50.272;19.026;2023-04-29T14:33:20;97863.47;;;14.66;46.66
34081;BME280;20358;50.272;19.026;2023-04-29T14:36:26;97857.72;;;14.53;46.25
34081;BME280;20358;50.272;19.026;2023-04-29T14:39:36;97860.63;;;14.32;46.76
34081;BME280;20358;50.272;19.026;2023-04-29T14:42:43;97865.44;;;14.29;46.98
34081;BME280;20358;50.272;19.026;2023-04-29T14:45:48;97863.94;;;14.17;47.35
34081;BME280;20358;50.272;19.026;2023-04-29T14:48:55;97859.25;;;14.10;49.07
34081;BME280;20358;50.272;19.026;2023-04-29T14:52:01;97866.16;;;14.03;51.07
34081;BME280;20358;50.272;19.026;2023-04-29T14:55:13;97874.56;;;13.89;51.83
34081;BME280;20358;50.272;19.026;2023-04-29T14:58:19;97876.00;;;13.74;55.01
34081;BME280;20358;50.272;19.026;2023-04-29T15:01:25;97870.63;;;13.57;58.53
34081;BME280;20358;50.272;19.026;2023-04-29T15:04:34;97873.91;;;13.41;60.88
34081;BME280;20358;50.272;19.026;2023-04-29T15:07:41;97868.06;;;13.28;61.09
34081;BME280;20358;50.272;19.026;2023-04-29T15:10:50;97870.84;;;13.26;62.52
34081;BME280;20358;50.272;19.026;2023-04-29T15:13:56;97865.00;;;13.23;60.58
34081;BME280;20358;50.272;19.026;2023-04-29T15:17:02;97873.38;;;13.28;59.60
34081;BME280;20358;50.272;19.026;2023-04-29T15:20:09;97872.22;;;13.40;58.16
34081;BME280;20358;50.272;19.026;2023-04-29T15:23:15;97865.47;;;13.55;59.61
34081;BME280;20358;50.272;19.026;2023-04-29T15:26:25;97873.25;;;13.66;58.57
34081;BME280;20358;50.272;19.026;2023-04-29T15:29:31;97867.38;;;13.72;58.11
34081;BME280;20358;50.272;19.026;2023-04-29T15:32:39;97879.06;;;13.79;57.31
34081;BME280;20358;50.272;19.026;2023-04-29T15:35:45;97878.78;;;13.82;58.31
34081;BME280;20358;50.272;19.026;2023-04-29T15:38:54;97886.66;;;13.65;54.47
34081;BME280;20358;50.272;19.026;2023-04-29T15:42:02;97887.56;;;13.46;54.96
34081;BME280;20358;50.272;19.026;2023-04-29T15:45:11;97876.16;;;13.36;55.68
34081;BME280;20358;50.272;19.026;2023-04-29T15:48:18;97888.72;;;13.24;54.74
34081;BME280;20358;50.272;19.026;2023-04-29T15:51:24;97888.03;;;13.13;54.66
34081;BME280;20358;50.272;19.026;2023-04-29T15:54:30;97890.13;;;13.00;55.68
34081;BME280;20358;50.272;19.026;2023-04-29T15:57:39;97889.13;;;12.91;55.19
34081;BME280;20358;50.272;19.026;2023-04-29T16:00:45;97883.44;;;12.76;56.12
34081;BME280;20358;50.272;19.026;2023-04-29T16:03:51;97885.34;;;12.74;56.88
34081;BME280;20358;50.272;19.026;2023-04-29T16:06:57;97879.09;;;12.75;55.74
34081;BME280;20358;50.272;19.026;2023-04-29T16:10:07;97889.97;;;12.72;56.86
34081;BME280;20358;50.272;19.026;2023-04-29T16:13:16;97892.34;;;12.75;56.28
34081;BME280;20358;50.272;19.026;2023-04-29T16:16:23;97894.53;;;12.51;58.35
34081;BME280;20358;50.272;19.026;2023-04-29T16:19:29;97900.44;;;11.75;61.79
34081;BME280;20358;50.272;19.026;2023-04-29T16:22:38;97908.88;;;11.39;64.33
34081;BME280;20358;50.272;19.026;2023-04-29T16:25:44;97910.56;;;11.08;65.83
34081;BME280;20358;50.272;19.026;2023-04-29T16:28:54;97908.75;;;10.88;67.42
34081;BME280;20358;50.272;19.026;2023-04-29T16:32:00;97905.34;;;10.76;68.19
34081;BME280;20358;50.272;19.026;2023-04-29T16:35:07;97897.75;;;10.72;68.83
34081;BME280;20358;50.272;19.026;2023-04-29T16:38:14;97895.84;;;10.74;68.73